createdAt,value
2022-08-05T00:01:28.417Z,22.42
2022-08-05T00:06:33.377Z,22.52
2022-08-05T00:11:49.374Z,22.23
2022-08-05T00:16:58.657Z,21.97
2022-08-05T00:22:05.477Z,21.96
2022-08-05T00:27:10.435Z,22.17
2022-08-05T00:32:17.157Z,22.15
2022-08-05T00:37:20.201Z,22.14
2022-08-05T00:42:37.392Z,21.93
2022-08-05T00:47:56.783Z,21.93
2022-08-05T00:53:03.749Z,21.84
2022-08-05T00:58:13.583Z,21.59
2022-08-05T01:03:22.798Z,21.59
2022-08-05T01:08:30.646Z,21.44
2022-08-05T01:14:28.008Z,21.47
2022-08-05T01:19:56.262Z,21.20
2022-08-05T01:25:13.635Z,21.21
2022-08-05T01:30:17.859Z,21.18
2022-08-05T01:35:50.709Z,21.16
2022-08-05T01:40:50.749Z,21.21
2022-08-05T01:45:55.273Z,20.95
2022-08-05T01:51:00.035Z,21.11
2022-08-05T01:56:08.973Z,21.17
2022-08-05T02:01:14.095Z,21.14
2022-08-05T02:06:37.203Z,21.27
2022-08-05T02:11:48.144Z,21.07
2022-08-05T02:16:56.453Z,20.94
2022-08-05T02:22:28.047Z,20.84
2022-08-05T02:27:57.976Z,20.88
2022-08-05T02:32:59.082Z,20.92
2022-08-05T02:38:02.765Z,20.91
2022-08-05T02:43:07.285Z,20.85
2022-08-05T02:48:12.720Z,20.68
2022-08-05T02:53:19.083Z,20.52
2022-08-05T02:58:22.975Z,20.55
2022-08-05T03:03:34.357Z,20.54
2022-08-05T03:08:53.205Z,20.24
2022-08-05T03:14:03.219Z,20.34
2022-08-05T03:19:12.990Z,20.42
2022-08-05T03:24:29.988Z,20.31
2022-08-05T03:29:45.796Z,20.32
2022-08-05T03:34:57.063Z,20.55
2022-08-05T03:40:01.811Z,20.67
2022-08-05T03:45:22.785Z,20.81
2022-08-05T03:50:30.479Z,20.53
2022-08-05T03:56:05.165Z,20.66
2022-08-05T04:01:04.268Z,21.08
2022-08-05T04:06:08.770Z,21.27
2022-08-05T04:11:11.963Z,21.40
2022-08-05T04:16:15.237Z,21.58
2022-08-05T04:22:08.715Z,21.75
2022-08-05T04:26:51.175Z,22.25
2022-08-05T04:31:53.626Z,23.46
2022-08-05T04:36:59.825Z,24.64
2022-08-05T04:42:03.900Z,25.51
2022-08-05T04:47:09.817Z,26.26
2022-08-05T04:52:13.126Z,26.81
2022-08-05T04:57:15.839Z,27.81
2022-08-05T05:02:37.136Z,28.18
2022-08-05T05:07:52.717Z,28.18
2022-08-05T05:12:59.197Z,27.98
2022-08-05T05:18:05.572Z,28.05
2022-08-05T05:23:20.018Z,28.83
2022-08-05T05:28:24.841Z,29.04
2022-08-05T05:33:27.775Z,27.98
2022-08-05T05:38:30.224Z,28.43
2022-08-05T05:43:58.174Z,28.72
2022-08-05T05:48:55.563Z,29.38
2022-08-05T05:54:00.062Z,29.44
2022-08-05T05:59:08.157Z,29.77
2022-08-05T06:04:12.965Z,29.95
2022-08-05T06:09:26.530Z,30.52
2022-08-05T06:14:40.401Z,30.73
2022-08-05T06:19:43.617Z,30.40
2022-08-05T06:24:59.701Z,30.60
2022-08-05T06:30:18.177Z,30.85
2022-08-05T06:36:07.576Z,30.82
2022-08-05T06:40:47.270Z,30.82
2022-08-05T06:46:06.552Z,31.05
2022-08-05T06:51:21.786Z,31.10
2022-08-05T06:56:27.363Z,30.83
2022-08-05T07:01:32.284Z,30.93
2022-08-05T07:06:35.401Z,30.52
2022-08-05T07:11:39.836Z,30.59
2022-08-05T07:17:58.749Z,30.40
2022-08-05T07:22:15.803Z,30.23
2022-08-05T07:27:18.501Z,30.04
2022-08-05T07:32:26.017Z,29.96
2022-08-05T07:37:37.595Z,29.95
2022-08-05T07:42:42.552Z,29.91
2022-08-05T07:47:48.196Z,30.09
2022-08-05T07:52:50.696Z,30.17
2022-08-05T07:58:02.481Z,30.03
2022-08-05T08:03:13.817Z,30.04
2022-08-05T08:08:20.078Z,30.47
2022-08-05T08:13:29.361Z,30.35
2022-08-05T08:18:32.032Z,30.25
2022-08-05T08:24:02.399Z,30.55
2022-08-05T08:29:02.035Z,30.79
2022-08-05T08:34:13.425Z,31.06
2022-08-05T08:39:18.372Z,31.21
2022-08-05T08:45:20.091Z,31.00
2022-08-05T08:50:22.880Z,31.02
2022-08-05T08:55:13.520Z,31.01
2022-08-05T09:00:22.025Z,31.20
2022-08-05T09:05:38.495Z,31.33
2022-08-05T09:10:47.736Z,31.46
2022-08-05T09:15:50.963Z,31.42
2022-08-05T09:20:53.798Z,31.55
2022-08-05T09:26:20.571Z,31.39
2022-08-05T09:32:41.142Z,31.53
2022-08-05T09:36:59.150Z,31.49
2022-08-05T09:42:04.604Z,31.73
2022-08-05T09:47:36.347Z,31.72
2022-08-05T09:52:59.519Z,32.06
2022-08-05T09:58:12.390Z,32.02
2022-08-05T10:03:15.890Z,32.11
2022-08-05T10:08:37.760Z,32.59
2022-08-05T10:13:45.551Z,32.44
2022-08-05T10:18:52.546Z,32.52
2022-08-05T10:24:00.480Z,32.43
2022-08-05T10:29:05.461Z,32.68
2022-08-05T10:34:16.878Z,32.71
2022-08-05T10:40:03.767Z,33.04
2022-08-05T10:44:50.451Z,33.32
2022-08-05T10:50:31.606Z,33.29
2022-08-05T10:56:03.437Z,33.25
2022-08-05T11:01:02.821Z,33.24
2022-08-05T11:06:15.513Z,33.31
2022-08-05T11:11:52.950Z,33.53
2022-08-05T11:18:09.762Z,33.67
2022-08-05T11:22:54.055Z,33.67
2022-08-05T11:28:17.267Z,33.51
2022-08-05T11:33:34.727Z,33.79
2022-08-05T11:38:52.012Z,33.51
2022-08-05T11:44:07.543Z,33.59
2022-08-05T11:49:15.059Z,34.00
2022-08-05T11:54:33.847Z,33.72
2022-08-05T11:59:49.545Z,34.08
2022-08-05T12:04:59.220Z,34.03
2022-08-05T12:21:50.761Z,33.52
2022-08-05T12:26:55.018Z,34.01
2022-08-05T12:32:01.889Z,34.42
2022-08-05T12:37:17.033Z,34.44
2022-08-05T12:42:25.367Z,34.25
2022-08-05T12:47:31.327Z,34.23
2022-08-05T12:52:39.190Z,33.74
2022-08-05T12:58:52.685Z,34.11
2022-08-05T13:03:13.519Z,34.38
2022-08-05T13:08:21.190Z,34.02
2022-08-05T13:14:06.267Z,33.73
2022-08-05T13:18:58.662Z,33.69
2022-08-05T13:24:02.432Z,33.73
2022-08-05T13:29:09.602Z,33.74
2022-08-05T13:34:21.030Z,34.30
2022-08-05T13:40:15.824Z,34.53
2022-08-05T13:44:54.517Z,35.01
2022-08-05T13:49:59.817Z,34.87
2022-08-05T13:55:02.420Z,34.36
2022-08-05T14:00:13.069Z,34.24
2022-08-05T14:05:19.607Z,34.06
2022-08-05T14:10:42.088Z,34.17
2022-08-05T14:16:07.195Z,34.16
2022-08-05T14:22:10.278Z,34.46
2022-08-05T14:26:51.356Z,34.61
2022-08-05T14:32:12.386Z,34.95
2022-08-05T14:37:20.560Z,34.68
2022-08-05T14:42:26.808Z,34.49
2022-08-05T14:48:04.205Z,34.85
2022-08-05T14:52:57.500Z,34.66
2022-08-05T14:58:10.872Z,34.73
2022-08-05T15:03:16.691Z,34.74
2022-08-05T15:08:58.156Z,34.70
2022-08-05T15:13:50.233Z,34.64
2022-08-05T15:18:53.177Z,34.59
2022-08-05T15:23:56.434Z,34.63
2022-08-05T15:29:02.441Z,34.70
2022-08-05T15:34:32.356Z,34.60
2022-08-05T15:41:00.099Z,34.66
2022-08-05T15:44:51.387Z,34.49
2022-08-05T15:49:59.086Z,33.99
2022-08-05T15:55:04.427Z,33.69
2022-08-05T16:00:10.189Z,33.47
2022-08-05T16:05:17.898Z,33.67
2022-08-05T16:10:25.555Z,33.98
2022-08-05T16:15:34.049Z,34.14
2022-08-05T16:20:37.442Z,34.12
2022-08-05T16:25:40.419Z,33.79
2022-08-05T16:30:44.706Z,33.68
2022-08-05T16:35:52.429Z,33.59
2022-08-05T16:41:00.515Z,33.41
2022-08-05T16:46:23.401Z,33.43
2022-08-05T16:51:30.975Z,33.12
2022-08-05T16:56:45.542Z,32.98
2022-08-05T17:01:56.906Z,32.48
2022-08-05T17:07:01.723Z,32.60
2022-08-05T17:12:05.995Z,32.36
2022-08-05T17:17:14.881Z,32.10
2022-08-05T17:22:25.542Z,31.78
2022-08-05T17:27:33.882Z,31.77
2022-08-05T17:32:37.219Z,31.93
2022-08-05T17:37:48.507Z,31.48
2022-08-05T17:42:53.530Z,30.97
2022-08-05T17:47:57.522Z,30.53
2022-08-05T17:53:02.580Z,30.42
2022-08-05T17:58:12.712Z,30.10
2022-08-05T18:03:56.071Z,29.99
2022-08-05T18:08:45.848Z,29.70
2022-08-05T18:13:55.395Z,29.61
2022-08-05T18:18:58.987Z,29.17
2022-08-05T18:24:05.781Z,29.01
2022-08-05T18:29:16.952Z,28.81
2022-08-05T18:34:22.771Z,28.67
2022-08-05T18:40:30.933Z,28.53
2022-08-05T18:45:04.679Z,28.80
2022-08-05T18:50:45.246Z,28.36
2022-08-05T18:55:50.046Z,28.29
2022-08-05T19:00:53.452Z,28.24
2022-08-05T19:06:13.612Z,28.26
2022-08-05T19:11:27.926Z,28.20
2022-08-05T19:16:36.968Z,28.06
2022-08-05T19:21:53.102Z,28.25
2022-08-05T19:26:56.382Z,28.20
2022-08-05T19:32:01.193Z,28.17
2022-08-05T19:37:05.773Z,28.17
2022-08-05T19:42:09.322Z,27.66
2022-08-05T19:47:17.745Z,27.88
2022-08-05T19:52:40.603Z,28.19
2022-08-05T19:57:49.270Z,28.31
2022-08-05T20:03:09.011Z,27.95
2022-08-05T20:08:12.635Z,27.92
2022-08-05T20:13:30.205Z,27.69
2022-08-05T20:18:44.313Z,27.18
2022-08-05T20:23:51.211Z,27.14
2022-08-05T20:29:00.709Z,26.93
2022-08-05T20:34:03.581Z,26.69
2022-08-05T20:39:07.180Z,26.79
2022-08-05T20:44:29.067Z,26.72
2022-08-05T20:49:39.476Z,26.47
2022-08-05T20:54:59.367Z,26.09
2022-08-05T21:00:19.918Z,25.70
2022-08-05T21:05:28.573Z,25.37
2022-08-05T21:10:50.705Z,24.87
2022-08-05T21:15:55.759Z,24.69
2022-08-05T21:21:00.430Z,24.24
2022-08-05T21:26:04.202Z,24.41
2022-08-05T21:31:15.066Z,24.52
2022-08-05T21:36:30.047Z,24.30
2022-08-05T21:41:36.078Z,24.77
2022-08-05T21:46:39.121Z,24.39
2022-08-05T21:52:21.456Z,24.33
2022-08-05T21:57:29.825Z,24.04
2022-08-05T22:02:29.757Z,23.84
2022-08-05T22:07:40.144Z,23.41
2022-08-05T22:13:08.771Z,23.35
2022-08-05T22:18:24.844Z,23.32
2022-08-05T22:24:02.843Z,23.21
2022-08-05T22:29:10.123Z,23.43
2022-08-05T22:34:25.704Z,23.35
2022-08-05T22:39:33.877Z,23.28
2022-08-05T22:44:36.751Z,23.23
2022-08-05T22:50:20.363Z,23.13
2022-08-05T22:55:04.247Z,23.12
2022-08-05T23:00:23.925Z,23.13
2022-08-05T23:05:27.258Z,23.04
2022-08-05T23:10:29.762Z,22.91
2022-08-05T23:15:34.898Z,22.95
2022-08-05T23:20:43.035Z,22.83
2022-08-05T23:25:52.144Z,22.66
2022-08-05T23:31:16.062Z,22.63
2022-08-05T23:36:22.126Z,22.68
2022-08-05T23:41:34.215Z,22.60
2022-08-05T23:46:40.196Z,22.67
2022-08-05T23:52:02.763Z,22.66
2022-08-05T23:57:08.614Z,22.64
